Bokeelia, Florida
Current Conditions -  °F | °C
As of 7:53 PM on Monday 22 Dec 2014 (Local Time) from KPGD Reporting Station
Clear Clear  
Wind Chill: 70°   Ceiling: Unl
Heat Index: 70°   Visibility: 10mi
Dew Point: 68°   Wind: 6mph
Humidity: 93%   Direction: 170°S
Pressure: 29.96"   Gusts: NA
Location:  26.71°N, 82.16°W
Report Text: KPGD 230053Z AUTO 17005KT 10SM CLR 21/20 A2996 RMK AO2 SLP145 T02110200
Loading
Personal Weather Stations






























Interactive Weather Map New forecast layout! Learn more

10-Day Weather Forecast

Advertisements
Track Severe Weather on mobile